Time;durP1;ratioP1;P1;durP2;ratioP2;P2;SDS_P1;SDS_P2;PMS_P1;PMS_P2;Temp;Humidity;BMP_temperature;BMP_pressure;BME280_temperature;BME280_humidity;BME280_pressure;Samples;Min_cycle;Max_cycle;Signal;HPM_P1;HPM_P2
2021/10/30 00:01:43;;;;;;;8.27;5.07;;;12.10;99.90;;;;;;6188005;22;20644;-91
2021/10/30 00:04:09;;;;;;;8.57;5.00;;;12.10;99.90;;;;;;6214186;23;20157;-93
2021/10/30 00:06:34;;;;;;;12.23;5.30;;;12.00;99.90;;;;;;6238633;22;20196;-92
2021/10/30 00:09:00;;;;;;;8.00;4.87;;;12.00;99.90;;;;;;6213546;23;20217;-91
2021/10/30 00:11:26;;;;;;;9.33;5.73;;;12.00;99.90;;;;;;6238225;22;20205;-92
2021/10/30 00:13:52;;;;;;;8.87;5.13;;;12.00;99.90;;;;;;6215724;22;20189;-91
2021/10/30 00:16:19;;;;;;;5.47;4.40;;;11.90;99.90;;;;;;6218388;22;20620;-94
2021/10/30 00:18:45;;;;;;;4.77;4.23;;;11.90;99.90;;;;;;6218234;22;20220;-92
2021/10/30 00:21:11;;;;;;;7.10;5.33;;;11.90;99.90;;;;;;6242545;22;20192;-91
2021/10/30 00:23:37;;;;;;;9.67;4.90;;;11.90;99.90;;;;;;6218382;22;20591;-92
2021/10/30 00:26:02;;;;;;;8.10;6.03;;;11.80;99.90;;;;;;6218202;22;20215;-92
2021/10/30 00:28:28;;;;;;;6.10;5.50;;;11.80;99.90;;;;;;6218777;22;20248;-93
2021/10/30 00:30:54;;;;;;;6.43;5.17;;;11.80;99.90;;;;;;6218339;22;20224;-91
2021/10/30 00:33:20;;;;;;;8.50;5.10;;;11.80;99.90;;;;;;6217457;22;20196;-92
2021/10/30 00:35:45;;;;;;;12.80;5.50;;;11.80;99.90;;;;;;6193247;22;20683;-92
2021/10/30 00:38:11;;;;;;;21.50;6.30;;;11.70;99.90;;;;;;6193863;22;20211;-92
2021/10/30 00:40:37;;;;;;;8.10;6.90;;;11.80;99.90;;;;;;6192956;22;20595;-93
2021/10/30 00:43:03;;;;;;;5.47;4.47;;;11.70;99.90;;;;;;6190317;22;20201;-92
2021/10/30 00:45:29;;;;;;;11.03;5.13;;;11.80;99.90;;;;;;6191622;22;20189;-92
2021/10/30 00:47:55;;;;;;;8.57;5.30;;;11.80;99.90;;;;;;6216893;22;20211;-92
2021/10/30 00:50:21;;;;;;;13.70;5.87;;;11.80;99.90;;;;;;6217051;22;20938;-91
2021/10/30 00:52:47;;;;;;;8.03;4.77;;;11.80;99.90;;;;;;6244066;22;20576;-92
2021/10/30 00:55:14;;;;;;;10.97;5.47;;;11.80;99.90;;;;;;6244822;22;20271;-91
2021/10/30 00:57:41;;;;;;;9.43;5.10;;;11.80;99.90;;;;;;6244285;22;20207;-92
2021/10/30 01:00:09;;;;;;;8.87;6.07;;;11.70;99.90;;;;;;6218956;22;20202;-93
2021/10/30 01:02:35;;;;;;;13.60;7.77;;;11.50;99.90;;;;;;6243921;22;20276;-92
2021/10/30 01:05:01;;;;;;;7.13;4.03;;;11.30;99.90;;;;;;6242777;22;20192;-91
2021/10/30 01:07:28;;;;;;;6.37;4.30;;;11.20;99.90;;;;;;6245628;22;20153;-92
2021/10/30 01:09:54;;;;;;;7.33;4.97;;;11.10;99.90;;;;;;6245558;22;20227;-91
2021/10/30 01:12:20;;;;;;;7.50;4.87;;;11.00;99.90;;;;;;6272505;22;20227;-91
2021/10/30 01:14:47;;;;;;;6.73;4.43;;;11.00;99.90;;;;;;6219515;22;20212;-92
2021/10/30 01:17:13;;;;;;;8.43;4.03;;;11.00;99.90;;;;;;6220506;22;20263;-92
2021/10/30 01:19:39;;;;;;;6.07;3.60;;;10.90;99.90;;;;;;6246403;22;20603;-90
2021/10/30 01:22:05;;;;;;;10.67;6.57;;;10.90;99.90;;;;;;6221235;22;20756;-92
2021/10/30 01:24:31;;;;;;;6.13;4.50;;;10.90;99.90;;;;;;6272562;22;20192;-91
2021/10/30 01:26:57;;;;;;;7.43;5.17;;;10.90;99.90;;;;;;6221124;22;20548;-91
2021/10/30 01:29:23;;;;;;;9.60;6.17;;;10.90;99.90;;;;;;6195834;22;20192;-91
2021/10/30 01:31:49;;;;;;;7.07;5.30;;;10.90;99.90;;;;;;6245478;22;20529;-92
2021/10/30 01:34:16;;;;;;;5.90;4.13;;;10.80;99.90;;;;;;6221544;22;20168;-91
2021/10/30 01:36:42;;;;;;;8.53;5.57;;;10.80;99.90;;;;;;6245843;22;20197;-92
2021/10/30 01:39:10;;;;;;;7.57;4.13;;;10.80;99.90;;;;;;6219258;22;20207;-92
2021/10/30 01:41:36;;;;;;;9.30;4.83;;;10.70;99.90;;;;;;6193112;22;20197;-92
2021/10/30 01:44:04;;;;;;;5.97;4.77;;;10.70;99.90;;;;;;6219308;22;20189;-92
2021/10/30 01:46:30;;;;;;;9.03;5.40;;;10.70;99.90;;;;;;6246194;22;20160;-93
2021/10/30 01:48:55;;;;;;;7.03;4.43;;;10.60;99.90;;;;;;6245797;22;20196;-93
2021/10/30 01:51:22;;;;;;;7.40;4.97;;;10.60;99.90;;;;;;6245906;22;20757;-94
2021/10/30 01:53:48;;;;;;;7.27;5.30;;;10.60;99.90;;;;;;6220798;22;20267;-92
2021/10/30 01:56:14;;;;;;;6.10;5.03;;;10.60;99.90;;;;;;6246407;22;20263;-92
2021/10/30 01:58:40;;;;;;;9.10;4.67;;;10.60;99.90;;;;;;6247604;22;20188;-90
2021/10/30 02:01:07;;;;;;;5.43;4.23;;;10.60;99.90;;;;;;6197563;22;20161;-92
2021/10/30 02:03:33;;;;;;;7.83;5.50;;;10.60;99.90;;;;;;6221336;22;20204;-91
2021/10/30 02:06:02;;;;;;;9.80;4.63;;;10.60;99.90;;;;;;6245838;22;20655;-93
2021/10/30 02:08:28;;;;;;;7.80;5.07;;;10.50;99.90;;;;;;6241870;22;20208;-93
2021/10/30 02:10:54;;;;;;;5.90;3.83;;;10.50;99.90;;;;;;6240434;22;20643;-94
2021/10/30 02:13:21;;;;;;;5.70;4.90;;;10.40;99.90;;;;;;6215806;22;20157;-94
2021/10/30 02:15:47;;;;;;;6.80;4.30;;;10.40;99.90;;;;;;6215846;22;20212;-92
2021/10/30 02:18:13;;;;;;;7.27;4.30;;;10.30;99.90;;;;;;6242745;22;20215;-91
2021/10/30 02:20:39;;;;;;;11.97;4.80;;;10.30;99.90;;;;;;6217996;22;20279;-92
2021/10/30 02:23:05;;;;;;;7.50;5.20;;;10.30;99.90;;;;;;6242798;22;20199;-90
2021/10/30 02:25:31;;;;;;;8.17;4.97;;;10.30;99.90;;;;;;6193372;22;20160;-93
2021/10/30 02:27:57;;;;;;;5.03;4.17;;;10.40;99.90;;;;;;6192756;22;20400;-92
2021/10/30 02:30:23;;;;;;;5.00;3.47;;;10.40;99.90;;;;;;6217517;22;20207;-92
2021/10/30 02:32:49;;;;;;;4.93;4.43;;;10.40;99.90;;;;;;6243068;22;20633;-93
2021/10/30 02:35:15;;;;;;;6.17;4.33;;;10.40;99.90;;;;;;6244852;22;20212;-92
2021/10/30 02:37:42;;;;;;;6.57;4.23;;;10.40;99.90;;;;;;6217315;22;20588;-93
2021/10/30 02:40:09;;;;;;;6.93;4.43;;;10.40;99.90;;;;;;6218382;22;20164;-92
2021/10/30 02:42:36;;;;;;;6.73;3.57;;;10.40;99.90;;;;;;6242718;22;20197;-92
2021/10/30 02:45:03;;;;;;;9.77;5.53;;;10.40;99.90;;;;;;6242175;22;20193;-93
2021/10/30 02:47:30;;;;;;;8.83;3.90;;;10.30;99.90;;;;;;6269188;22;20192;-92
2021/10/30 02:49:56;;;;;;;6.60;4.17;;;10.40;99.90;;;;;;6269199;22;20288;-93
2021/10/30 02:52:21;;;;;;;7.63;4.60;;;10.30;99.90;;;;;;6269468;22;20196;-93
2021/10/30 02:54:47;;;;;;;5.50;4.93;;;10.30;99.90;;;;;;6268555;22;20200;-93
2021/10/30 02:57:14;;;;;;;4.77;4.13;;;10.40;99.90;;;;;;6216901;22;20197;-91
2021/10/30 02:59:39;;;;;;;7.40;4.40;;;10.40;99.90;;;;;;6217441;22;20200;-91
2021/10/30 03:02:05;;;;;;;7.80;4.17;;;10.40;99.90;;;;;;6217008;22;20658;-93
2021/10/30 03:04:32;;;;;;;5.13;3.40;;;10.50;99.90;;;;;;6242531;22;20171;-92
2021/10/30 03:06:57;;;;;;;6.60;3.30;;;10.50;99.90;;;;;;6241946;22;21011;-93
2021/10/30 03:09:23;;;;;;;6.37;4.00;;;10.40;99.90;;;;;;6216600;22;20197;-92
2021/10/30 03:11:49;;;;;;;5.23;3.70;;;10.40;99.90;;;;;;6242053;22;20699;-92
2021/10/30 03:14:15;;;;;;;10.53;4.37;;;10.40;99.90;;;;;;6211643;23;20288;-94
2021/10/30 03:16:40;;;;;;;3.33;2.40;;;10.40;99.90;;;;;;6211340;22;20165;-91
2021/10/30 03:19:06;;;;;;;5.00;3.07;;;10.40;99.90;;;;;;6237324;23;20173;-93
2021/10/30 03:21:32;;;;;;;4.90;3.43;;;10.40;99.90;;;;;;6236552;22;20204;-92
2021/10/30 03:23:58;;;;;;;6.50;4.33;;;10.40;99.90;;;;;;6236477;22;20193;-92
2021/10/30 03:26:24;;;;;;;4.30;3.10;;;10.40;99.90;;;;;;6236920;22;20200;-93
2021/10/30 03:28:51;;;;;;;4.77;3.60;;;10.50;99.90;;;;;;6211649;22;20252;-93
2021/10/30 03:31:17;;;;;;;6.00;4.23;;;10.50;99.90;;;;;;6211974;23;20189;-93
2021/10/30 03:33:42;;;;;;;4.67;4.20;;;10.60;99.90;;;;;;6186551;23;20246;-93
2021/10/30 03:36:08;;;;;;;4.07;3.43;;;10.50;99.90;;;;;;6210744;23;20616;-91
2021/10/30 03:38:34;;;;;;;5.73;3.47;;;10.50;99.90;;;;;;6236984;22;20193;-92
2021/10/30 03:41:00;;;;;;;6.20;4.20;;;10.40;99.90;;;;;;6236581;22;20284;-91
2021/10/30 03:43:27;;;;;;;3.03;2.73;;;10.40;99.90;;;;;;6212071;23;20178;-91
2021/10/30 03:45:53;;;;;;;4.67;3.53;;;10.50;99.90;;;;;;6212109;23;20201;-92
2021/10/30 03:48:20;;;;;;;3.83;2.53;;;10.50;99.90;;;;;;6210841;23;20205;-91
2021/10/30 03:50:47;;;;;;;6.00;4.77;;;10.50;99.90;;;;;;6187312;23;20255;-91
2021/10/30 03:53:14;;;;;;;6.20;3.67;;;10.50;99.90;;;;;;6236705;22;20272;-92
2021/10/30 03:55:40;;;;;;;10.40;3.90;;;10.50;99.90;;;;;;6237368;23;20161;-92
2021/10/30 03:58:06;;;;;;;4.70;2.57;;;10.40;99.90;;;;;;6236723;23;20919;-92
2021/10/30 04:00:32;;;;;;;3.60;2.53;;;10.40;99.90;;;;;;6211676;23;20603;-91
2021/10/30 04:02:58;;;;;;;5.87;3.77;;;10.40;99.90;;;;;;6211851;23;20229;-91
2021/10/30 04:05:24;;;;;;;7.63;3.90;;;10.40;99.90;;;;;;6211666;23;20198;-93
2021/10/30 04:07:50;;;;;;;5.70;3.73;;;10.40;99.90;;;;;;6236852;22;20895;-92
2021/10/30 04:10:16;;;;;;;7.50;4.40;;;10.40;99.90;;;;;;6211772;23;20197;-94
2021/10/30 04:12:42;;;;;;;4.80;3.13;;;10.40;99.90;;;;;;6211771;23;20236;-92
2021/10/30 04:15:09;;;;;;;6.67;5.07;;;10.40;99.90;;;;;;6211386;23;20205;-92
2021/10/30 04:17:35;;;;;;;4.30;3.57;;;10.30;99.90;;;;;;6235437;22;20645;-92
2021/10/30 04:20:00;;;;;;;4.87;3.23;;;10.30;99.90;;;;;;6232680;22;20197;-92
2021/10/30 04:22:26;;;;;;;5.97;3.70;;;10.20;99.90;;;;;;6208380;23;20164;-92
2021/10/30 04:24:53;;;;;;;5.03;3.83;;;10.20;99.90;;;;;;6233121;22;20400;-92
2021/10/30 04:27:19;;;;;;;4.90;3.13;;;10.10;99.90;;;;;;6237353;22;20528;-92
2021/10/30 04:29:45;;;;;;;4.37;3.97;;;10.00;99.90;;;;;;6236020;22;20224;-92
2021/10/30 04:32:12;;;;;;;9.50;4.23;;;10.00;99.90;;;;;;6211001;23;20703;-92
2021/10/30 04:37:15;;;;;;;4.13;3.43;;;10.00;99.90;;;;;;6236388;23;20624;-92
2021/10/30 04:39:49;;;;;;;6.80;3.53;;;10.00;99.90;;;;;;6236384;22;20201;-92
2021/10/30 04:42:16;;;;;;;3.70;3.20;;;10.00;99.90;;;;;;6212626;23;20208;-93
2021/10/30 04:44:42;;;;;;;6.83;3.73;;;10.00;99.90;;;;;;6211708;23;20961;-92
2021/10/30 04:47:09;;;;;;;6.10;4.57;;;10.00;99.90;;;;;;6211051;23;20264;-92
2021/10/30 04:49:36;;;;;;;5.83;3.50;;;10.10;99.90;;;;;;6237023;23;20188;-91
2021/10/30 04:52:02;;;;;;;5.13;3.73;;;10.10;99.90;;;;;;6236003;22;20193;-92
2021/10/30 04:54:28;;;;;;;6.50;4.50;;;10.20;99.90;;;;;;6185915;23;20226;-92
2021/10/30 04:56:54;;;;;;;4.77;3.87;;;10.20;99.90;;;;;;6210926;23;20204;-92
2021/10/30 04:59:20;;;;;;;6.63;4.40;;;10.20;99.90;;;;;;6235897;22;21003;-91
2021/10/30 05:01:45;;;;;;;7.23;3.77;;;10.30;99.90;;;;;;6186552;22;20211;-91
2021/10/30 05:04:11;;;;;;;7.03;4.23;;;10.30;99.90;;;;;;6186062;23;20157;-91
2021/10/30 05:06:37;;;;;;;5.17;3.67;;;10.30;99.90;;;;;;6235938;22;21003;-92
2021/10/30 05:09:03;;;;;;;5.57;3.63;;;10.40;99.90;;;;;;6235897;22;20224;-92
2021/10/30 05:11:31;;;;;;;4.20;3.33;;;10.40;99.90;;;;;;6235917;22;20381;-92
2021/10/30 05:13:57;;;;;;;6.33;4.43;;;10.40;99.90;;;;;;6239610;22;20165;-93
2021/10/30 05:16:23;;;;;;;6.40;4.10;;;10.40;99.90;;;;;;6242468;22;20160;-92
2021/10/30 05:18:49;;;;;;;7.03;4.87;;;10.40;99.90;;;;;;6241485;22;20196;-92
2021/10/30 05:21:15;;;;;;;8.77;3.90;;;10.50;99.90;;;;;;6242245;22;20534;-92
2021/10/30 05:23:41;;;;;;;7.13;4.27;;;10.50;99.90;;;;;;6242688;22;20201;-92
2021/10/30 05:26:07;;;;;;;8.27;4.27;;;10.50;99.90;;;;;;6242937;22;20199;-93
2021/10/30 05:28:33;;;;;;;5.50;4.10;;;10.60;99.90;;;;;;6244122;22;20157;-91
2021/10/30 05:31:00;;;;;;;7.20;4.20;;;10.60;99.90;;;;;;6269400;22;20240;-92
2021/10/30 05:33:25;;;;;;;4.40;3.93;;;10.60;99.90;;;;;;6217504;22;20946;-92
2021/10/30 05:35:51;;;;;;;6.07;4.10;;;10.50;99.90;;;;;;6213993;22;20201;-92
2021/10/30 05:38:17;;;;;;;5.33;3.80;;;10.50;99.90;;;;;;6214345;22;20631;-95
2021/10/30 05:40:45;;;;;;;10.50;5.63;;;10.50;99.90;;;;;;6214497;22;20165;-93
2021/10/30 05:43:12;;;;;;;4.77;4.27;;;10.50;99.90;;;;;;6241304;22;20153;-92
2021/10/30 05:45:43;;;;;;;4.97;4.00;;;10.50;99.90;;;;;;6267600;22;20196;-91
2021/10/30 05:48:11;;;;;;;5.67;4.93;;;10.60;99.90;;;;;;6216233;22;20196;-93
2021/10/30 05:50:37;;;;;;;6.03;3.97;;;10.70;99.90;;;;;;6268933;22;20535;-92
2021/10/30 05:53:04;;;;;;;3.83;2.73;;;10.80;99.90;;;;;;6193029;22;20193;-91
2021/10/30 05:55:30;;;;;;;5.10;3.73;;;10.80;99.90;;;;;;6217891;22;20244;-92
2021/10/30 05:57:56;;;;;;;4.60;3.73;;;10.90;99.90;;;;;;6269073;22;20224;-92
2021/10/30 06:00:22;;;;;;;6.03;4.67;;;10.90;99.90;;;;;;6242622;22;20287;-92
2021/10/30 06:02:48;;;;;;;7.30;3.93;;;10.90;99.90;;;;;;6243035;22;20189;-91
2021/10/30 06:05:14;;;;;;;6.53;4.80;;;11.00;99.90;;;;;;6242463;22;20188;-91
2021/10/30 06:07:40;;;;;;;4.23;3.47;;;11.00;99.90;;;;;;6194084;22;20161;-93
2021/10/30 06:10:07;;;;;;;5.03;3.87;;;11.00;99.90;;;;;;6218726;22;20262;-90
2021/10/30 06:12:38;;;;;;;3.37;3.07;;;11.00;99.90;;;;;;6269266;22;20197;-91
2021/10/30 06:15:05;;;;;;;6.73;3.73;;;11.00;99.90;;;;;;6242524;22;20980;-90
2021/10/30 06:17:31;;;;;;;6.63;4.50;;;11.00;99.90;;;;;;6268461;22;20200;-90
2021/10/30 06:19:57;;;;;;;3.60;3.00;;;11.00;99.90;;;;;;6216650;22;20217;-90
2021/10/30 06:22:23;;;;;;;5.40;4.20;;;11.10;99.90;;;;;;6243441;22;20165;-90
2021/10/30 06:24:48;;;;;;;5.93;3.77;;;11.10;99.90;;;;;;6242443;22;20682;-90
2021/10/30 06:27:14;;;;;;;6.60;5.27;;;11.10;99.90;;;;;;6217098;22;20851;-89
2021/10/30 06:29:40;;;;;;;5.00;3.97;;;11.10;99.90;;;;;;6242651;22;20204;-90
2021/10/30 06:32:06;;;;;;;7.03;5.73;;;11.20;99.90;;;;;;6241244;22;20184;-90
2021/10/30 06:34:32;;;;;;;5.63;4.83;;;11.20;99.90;;;;;;6243159;22;20167;-89
2021/10/30 06:36:58;;;;;;;9.10;5.97;;;11.20;99.90;;;;;;6217460;22;20188;-91
2021/10/30 06:39:24;;;;;;;8.20;6.23;;;11.30;99.90;;;;;;6192218;22;20201;-91
2021/10/30 06:41:50;;;;;;;8.43;4.97;;;11.40;99.90;;;;;;6217197;22;20216;-90
2021/10/30 06:44:17;;;;;;;7.97;4.57;;;11.40;99.90;;;;;;6242619;22;20529;-90
2021/10/30 06:46:44;;;;;;;9.23;5.67;;;11.50;99.90;;;;;;6216844;22;20171;-91
2021/10/30 06:49:11;;;;;;;7.00;5.63;;;11.50;99.90;;;;;;6242195;22;20650;-91
2021/10/30 06:51:41;;;;;;;6.83;4.27;;;11.60;99.90;;;;;;6193488;22;20258;-90
2021/10/30 06:54:10;;;;;;;7.73;4.87;;;11.60;99.90;;;;;;6217937;22;20192;-88
2021/10/30 06:56:38;;;;;;;10.70;5.77;;;11.60;99.90;;;;;;6216919;22;20291;-90
2021/10/30 06:59:04;;;;;;;11.77;5.93;;;11.60;99.90;;;;;;6243518;22;20947;-90
2021/10/30 07:01:33;;;;;;;7.23;6.17;;;11.60;99.90;;;;;;6193653;22;20221;-94
2021/10/30 07:04:00;;;;;;;11.20;7.00;;;11.60;99.90;;;;;;6193910;22;20215;-90
2021/10/30 07:06:25;;;;;;;12.13;5.90;;;11.60;99.90;;;;;;6217479;22;20481;-90
2021/10/30 07:08:51;;;;;;;12.80;6.70;;;11.70;99.90;;;;;;6217807;22;20693;-91
2021/10/30 07:11:17;;;;;;;7.73;5.33;;;11.70;99.90;;;;;;6218065;22;20227;-92
2021/10/30 07:13:43;;;;;;;7.03;5.43;;;11.70;99.90;;;;;;6192043;22;20157;-90
2021/10/30 07:16:14;;;;;;;7.07;5.40;;;11.80;99.90;;;;;;6243543;22;20603;-92
2021/10/30 07:18:40;;;;;;;7.97;6.17;;;11.80;99.90;;;;;;6241726;22;20283;-92
2021/10/30 07:21:06;;;;;;;8.27;5.10;;;11.80;99.90;;;;;;6241444;22;20223;-91
2021/10/30 07:23:31;;;;;;;6.43;5.07;;;11.80;99.90;;;;;;6241718;22;20196;-89
2021/10/30 07:25:57;;;;;;;6.40;5.20;;;11.80;99.90;;;;;;6241760;22;20157;-92
2021/10/30 07:28:23;;;;;;;8.60;5.10;;;11.90;99.90;;;;;;6217088;22;20604;-90
2021/10/30 07:30:49;;;;;;;7.20;6.10;;;11.90;99.90;;;;;;6240598;22;20974;-88
2021/10/30 07:33:15;;;;;;;9.10;5.33;;;11.90;99.90;;;;;;6241850;22;20219;-91
2021/10/30 07:35:40;;;;;;;8.60;6.27;;;11.90;99.90;;;;;;6216848;22;20196;-92
2021/10/30 07:38:06;;;;;;;10.07;5.53;;;12.00;99.90;;;;;;6242593;22;20188;-92
2021/10/30 07:40:33;;;;;;;9.97;4.73;;;12.00;99.90;;;;;;6242680;22;20160;-91
2021/10/30 07:43:00;;;;;;;8.17;5.47;;;12.00;99.90;;;;;;6216563;22;20562;-91
2021/10/30 07:45:27;;;;;;;9.90;4.77;;;12.00;99.90;;;;;;6241734;22;20242;-91
2021/10/30 07:47:54;;;;;;;8.67;5.00;;;12.00;99.90;;;;;;6241950;22;20196;-92
2021/10/30 07:50:20;;;;;;;9.67;5.27;;;12.10;99.90;;;;;;6217072;22;20231;-90
2021/10/30 07:52:46;;;;;;;8.93;5.07;;;12.10;99.90;;;;;;6191196;22;20164;-92
2021/10/30 07:55:12;;;;;;;3.73;3.13;;;12.10;99.90;;;;;;6217509;22;20188;-92
2021/10/30 07:57:37;;;;;;;5.53;3.87;;;12.10;99.90;;;;;;6217605;22;20200;-92
2021/10/30 08:00:06;;;;;;;10.20;4.43;;;12.10;99.90;;;;;;6218631;22;20192;-92
2021/10/30 08:02:32;;;;;;;8.50;4.93;;;12.10;99.90;;;;;;6271883;22;20188;-93
2021/10/30 08:04:59;;;;;;;4.87;3.60;;;12.10;99.90;;;;;;6271007;22;20842;-91
2021/10/30 08:07:25;;;;;;;7.40;4.90;;;12.10;99.90;;;;;;6218094;22;20554;-92
2021/10/30 08:09:51;;;;;;;6.83;5.37;;;12.10;99.90;;;;;;6242123;22;20232;-92
2021/10/30 08:12:16;;;;;;;7.83;5.30;;;12.00;99.90;;;;;;6249658;22;20200;-92
2021/10/30 08:14:42;;;;;;;6.07;4.70;;;12.00;99.90;;;;;;6232114;22;20216;-91
2021/10/30 08:17:08;;;;;;;6.73;4.40;;;12.00;99.90;;;;;;6289716;22;20180;-88
2021/10/30 08:19:34;;;;;;;7.50;4.17;;;12.10;99.90;;;;;;6244254;22;20627;-87
2021/10/30 08:22:02;;;;;;;5.07;4.40;;;12.10;99.90;;;;;;6215677;22;20207;-87
2021/10/30 08:24:28;;;;;;;3.53;2.70;;;12.10;99.90;;;;;;6267398;22;20192;-85
2021/10/30 08:26:54;;;;;;;6.20;4.13;;;12.10;99.90;;;;;;6215551;22;20726;-85
2021/10/30 08:29:20;;;;;;;5.50;2.87;;;12.00;99.90;;;;;;6215389;22;20184;-87
2021/10/30 08:31:47;;;;;;;4.70;3.30;;;12.00;99.90;;;;;;6215925;22;20200;-87
2021/10/30 08:34:12;;;;;;;3.77;3.43;;;12.10;99.90;;;;;;6268118;22;20161;-86
2021/10/30 08:36:38;;;;;;;3.43;2.37;;;12.00;99.90;;;;;;6240869;22;20282;-85
2021/10/30 08:39:05;;;;;;;3.50;2.97;;;12.10;99.90;;;;;;6212685;22;20270;-87
2021/10/30 08:41:31;;;;;;;5.10;2.73;;;12.10;99.90;;;;;;6212319;22;20204;-88
2021/10/30 08:43:57;;;;;;;3.20;1.80;;;12.10;99.90;;;;;;6239854;22;20169;-87
2021/10/30 08:46:23;;;;;;;3.37;2.80;;;12.00;99.90;;;;;;6239940;22;20156;-88
2021/10/30 08:48:52;;;;;;;5.73;3.13;;;12.10;99.90;;;;;;6240279;22;20264;-88
2021/10/30 08:51:18;;;;;;;3.73;3.27;;;12.00;99.90;;;;;;6240047;22;20213;-88
2021/10/30 08:53:43;;;;;;;12.47;2.40;;;12.00;99.90;;;;;;6237159;22;20192;-86
2021/10/30 08:56:10;;;;;;;2.20;2.03;;;12.00;99.90;;;;;;6212119;22;20189;-87
2021/10/30 08:58:36;;;;;;;3.20;2.40;;;12.00;99.90;;;;;;6263847;22;20152;-87
2021/10/30 09:01:08;;;;;;;3.60;2.20;;;12.00;99.90;;;;;;6236444;22;20640;-86
2021/10/30 09:03:37;;;;;;;3.73;3.33;;;12.00;99.90;;;;;;6238940;22;20207;-87
2021/10/30 09:06:03;;;;;;;2.27;1.70;;;12.00;99.90;;;;;;6240432;22;20200;-92
2021/10/30 09:08:30;;;;;;;2.07;1.87;;;12.00;99.90;;;;;;6190153;22;20196;-90
2021/10/30 09:11:03;;;;;;;3.33;2.73;;;12.00;99.90;;;;;;6239226;22;20215;-94
2021/10/30 09:13:30;;;;;;;4.97;2.03;;;12.00;99.90;;;;;;6241196;22;20548;-93
2021/10/30 09:15:58;;;;;;;8.07;5.53;;;12.10;99.90;;;;;;6265886;22;20216;-92
2021/10/30 09:18:24;;;;;;;2.67;2.40;;;12.10;99.90;;;;;;6267059;22;20200;-94
2021/10/30 09:20:52;;;;;;;6.67;3.07;;;12.10;99.90;;;;;;6241974;22;20207;-94
2021/10/30 09:23:20;;;;;;;7.00;2.67;;;12.10;99.90;;;;;;6216280;22;20192;-94
2021/10/30 09:25:59;;;;;;;5.20;3.20;;;12.10;99.90;;;;;;6241641;22;20160;-95
2021/10/30 09:28:31;;;;;;;5.63;3.43;;;12.10;99.90;;;;;;6242988;22;20156;-95
2021/10/30 09:31:05;;;;;;;4.47;3.27;;;12.20;99.90;;;;;;6241382;22;20932;-92
2021/10/30 09:33:33;;;;;;;5.80;3.87;;;12.20;99.90;;;;;;6240588;22;20197;-92
2021/10/30 09:36:12;;;;;;;4.53;3.43;;;12.20;99.90;;;;;;6241097;22;20201;-92
2021/10/30 09:38:40;;;;;;;7.47;4.67;;;12.20;99.90;;;;;;6267190;22;20330;-90
2021/10/30 09:41:27;;;;;;;9.07;4.70;;;12.20;99.90;;;;;;6241217;22;20192;-90
2021/10/30 09:44:02;;;;;;;4.23;3.47;;;12.20;99.90;;;;;;6267715;22;20226;-93
2021/10/30 09:46:36;;;;;;;8.20;4.23;;;12.20;99.90;;;;;;6267600;22;20218;-92
2021/10/30 09:49:14;;;;;;;6.50;4.17;;;12.30;99.90;;;;;;6241029;22;20253;-92
2021/10/30 09:51:44;;;;;;;4.63;3.47;;;12.30;99.90;;;;;;6240914;22;20652;-89
2021/10/30 09:54:10;;;;;;;4.00;3.53;;;12.30;99.90;;;;;;6267728;22;20193;-88
2021/10/30 09:56:47;;;;;;;5.07;3.20;;;12.30;99.90;;;;;;6215196;22;20215;-88
2021/10/30 09:59:17;;;;;;;5.90;3.87;;;12.40;99.90;;;;;;6267227;22;20211;-88
2021/10/30 10:01:45;;;;;;;6.83;4.37;;;12.40;99.90;;;;;;6215383;22;20165;-88
2021/10/30 10:04:12;;;;;;;8.20;3.77;;;12.40;99.90;;;;;;6267559;22;20644;-85
2021/10/30 10:06:42;;;;;;;6.13;4.47;;;12.40;99.90;;;;;;6240746;22;20233;-87
2021/10/30 10:09:07;;;;;;;4.43;2.60;;;12.50;99.90;;;;;;6242623;22;20263;-87
2021/10/30 10:11:33;;;;;;;4.63;3.13;;;12.50;99.90;;;;;;6217527;22;20929;-87
2021/10/30 10:14:01;;;;;;;4.17;3.13;;;12.50;99.90;;;;;;6242205;22;20165;-88
2021/10/30 10:16:27;;;;;;;5.10;4.23;;;12.60;99.90;;;;;;6269621;22;20160;-87
2021/10/30 10:18:58;;;;;;;4.70;3.73;;;12.60;99.90;;;;;;6218042;22;20207;-87
2021/10/30 10:21:28;;;;;;;5.17;4.27;;;12.60;99.90;;;;;;6269201;22;20204;-87
2021/10/30 10:24:01;;;;;;;4.27;3.43;;;12.70;99.90;;;;;;6270840;22;20246;-87
2021/10/30 10:26:33;;;;;;;3.50;3.20;;;12.70;99.90;;;;;;6244493;22;20203;-87
2021/10/30 10:29:04;;;;;;;3.47;2.50;;;12.70;99.90;;;;;;6245728;22;20164;-87
2021/10/30 10:31:29;;;;;;;5.27;3.27;;;12.70;99.90;;;;;;6218147;22;20185;-88
2021/10/30 10:34:09;;;;;;;3.87;3.43;;;12.80;99.90;;;;;;6217895;22;20279;-87
2021/10/30 10:36:37;;;;;;;4.30;2.50;;;12.80;99.90;;;;;;6272280;22;20192;-87
2021/10/30 10:39:03;;;;;;;3.60;2.57;;;12.80;99.90;;;;;;6221428;22;20197;-87
2021/10/30 10:41:40;;;;;;;7.60;3.67;;;12.90;99.90;;;;;;6264398;22;20192;-90
2021/10/30 10:44:11;;;;;;;4.13;3.33;;;12.90;99.90;;;;;;6241296;22;21448;-86
2021/10/30 10:46:52;;;;;;;3.23;2.90;;;12.90;99.90;;;;;;6240827;22;20157;-90
2021/10/30 10:49:24;;;;;;;4.00;2.87;;;12.90;99.90;;;;;;6269230;22;20176;-93
2021/10/30 10:52:03;;;;;;;2.87;2.67;;;12.80;99.90;;;;;;6242596;22;20287;-90
2021/10/30 10:54:52;;;;;;;4.57;3.17;;;12.70;99.90;;;;;;6242195;22;20205;-90
2021/10/30 10:57:26;;;;;;;3.70;3.17;;;12.70;99.90;;;;;;6219052;22;20837;-91
2021/10/30 11:00:04;;;;;;;3.77;2.83;;;12.70;99.90;;;;;;6242421;22;20279;-93
2021/10/30 11:02:32;;;;;;;5.83;2.70;;;12.70;99.90;;;;;;6241516;22;20285;-93
2021/10/30 11:05:07;;;;;;;5.77;2.80;;;12.70;99.90;;;;;;6267896;22;20236;-90
2021/10/30 11:07:41;;;;;;;2.97;2.23;;;12.70;99.90;;;;;;6268200;22;20209;-91
2021/10/30 11:10:08;;;;;;;3.53;2.13;;;12.70;99.90;;;;;;6267840;22;20208;-90
2021/10/30 11:12:35;;;;;;;5.73;2.80;;;12.70;99.90;;;;;;6241736;22;20192;-92
2021/10/30 11:15:08;;;;;;;3.90;2.90;;;12.80;99.90;;;;;;6241249;22;20269;-92
2021/10/30 11:18:08;;;;;;;3.80;2.37;;;12.80;99.90;;;;;;6240450;22;20210;-90
2021/10/30 11:20:42;;;;;;;3.43;2.47;;;12.80;99.90;;;;;;6241987;22;20702;-90
2021/10/30 11:23:30;;;;;;;2.63;2.07;;;12.80;99.90;;;;;;6242023;22;20274;-87
2021/10/30 11:26:18;;;;;;;5.10;2.43;;;12.90;99.90;;;;;;6217753;22;20204;-95
2021/10/30 11:28:44;;;;;;;2.17;1.90;;;12.80;99.90;;;;;;6269297;22;20156;-92
2021/10/30 11:31:15;;;;;;;2.27;1.33;;;12.80;99.90;;;;;;6243637;22;20516;-93
2021/10/30 11:33:41;;;;;;;2.30;2.07;;;12.80;99.90;;;;;;6242199;22;20197;-93
2021/10/30 11:36:07;;;;;;;1.73;1.47;;;12.80;99.90;;;;;;6242979;22;20197;-92
2021/10/30 11:38:46;;;;;;;2.23;1.67;;;12.80;99.90;;;;;;6241552;22;20741;-92
2021/10/30 11:41:22;;;;;;;3.37;2.43;;;12.80;99.90;;;;;;6242301;22;20286;-91
2021/10/30 11:43:49;;;;;;;3.23;2.50;;;12.80;99.90;;;;;;6268189;22;20203;-93
2021/10/30 11:46:19;;;;;;;5.87;1.60;;;12.80;99.90;;;;;;6269731;22;20171;-93
2021/10/30 11:48:55;;;;;;;2.47;2.27;;;12.80;99.90;;;;;;6268802;22;20257;-93
2021/10/30 11:51:25;;;;;;;2.97;2.40;;;12.80;99.90;;;;;;6241780;22;20434;-93
2021/10/30 11:53:53;;;;;;;1.73;1.50;;;12.90;99.90;;;;;;6268023;22;20197;-91
2021/10/30 11:56:26;;;;;;;6.77;2.17;;;12.90;99.90;;;;;;6242132;22;20259;-91
2021/10/30 11:58:55;;;;;;;2.33;1.83;;;12.90;99.90;;;;;;6241517;22;20145;-92
2021/10/30 12:01:36;;;;;;;3.23;2.80;;;12.90;99.90;;;;;;6239638;22;20198;-92
2021/10/30 12:04:01;;;;;;;1.17;1.17;;;12.90;99.90;;;;;;6267466;22;20905;-94
2021/10/30 12:06:28;;;;;;;5.17;2.90;;;12.90;99.90;;;;;;6239552;22;20306;-94
2021/10/30 12:08:57;;;;;;;1.80;1.67;;;12.90;99.90;;;;;;6213133;22;20196;-92
2021/10/30 12:11:29;;;;;;;2.20;2.00;;;12.90;99.90;;;;;;6239035;22;20655;-91
2021/10/30 12:13:59;;;;;;;2.53;2.33;;;13.00;99.90;;;;;;6237547;22;20157;-92
2021/10/30 12:16:28;;;;;;;2.13;1.77;;;13.00;99.90;;;;;;6265009;22;20161;-91
2021/10/30 12:19:04;;;;;;;4.67;2.27;;;13.00;99.90;;;;;;6211913;22;20222;-90
2021/10/30 12:21:32;;;;;;;6.10;2.47;;;13.00;99.90;;;;;;6212469;22;20196;-91
2021/10/30 12:24:04;;;;;;;3.37;2.43;;;13.00;99.90;;;;;;6264391;22;20200;-93
2021/10/30 12:26:50;;;;;;;5.27;2.87;;;13.10;99.90;;;;;;6239377;22;20192;-92
2021/10/30 12:29:21;;;;;;;4.07;2.07;;;13.10;99.90;;;;;;6241407;22;20188;-90
2021/10/30 12:32:11;;;;;;;3.90;2.60;;;13.10;99.90;;;;;;6216844;22;20192;-92
2021/10/30 12:34:40;;;;;;;3.30;2.13;;;13.10;99.90;;;;;;6269306;22;20183;-92
2021/10/30 12:37:13;;;;;;;1.93;1.80;;;13.20;99.90;;;;;;6242702;22;20184;-91
2021/10/30 12:39:40;;;;;;;4.87;3.00;;;13.20;99.90;;;;;;6191295;22;20193;-91
2021/10/30 12:42:09;;;;;;;4.37;2.43;;;13.20;99.90;;;;;;6216692;22;20254;-90
2021/10/30 12:44:37;;;;;;;3.03;2.30;;;13.30;99.90;;;;;;6241498;22;20238;-92
2021/10/30 12:47:14;;;;;;;3.30;2.67;;;13.30;99.90;;;;;;6268351;22;20215;-90
2021/10/30 12:49:43;;;;;;;3.30;2.70;;;13.30;99.90;;;;;;6244104;22;20151;-89
2021/10/30 12:52:14;;;;;;;3.63;2.77;;;13.30;99.90;;;;;;6244315;22;20181;-91